createdAt,value
2023-01-09T00:01:29.951Z,7.19
2023-01-09T00:03:56.890Z,7.19
2023-01-09T00:06:23.994Z,7.22
2023-01-09T00:08:50.858Z,7.28
2023-01-09T00:11:17.987Z,7.32
2023-01-09T00:13:44.955Z,7.32
2023-01-09T00:16:11.764Z,7.24
2023-01-09T00:18:38.990Z,7.17
2023-01-09T00:21:09.139Z,7.25
2023-01-09T00:23:36.432Z,7.25
2023-01-09T00:26:08.760Z,7.24
2023-01-09T00:28:36.300Z,7.28
2023-01-09T00:31:05.193Z,7.37
2023-01-09T00:33:44.980Z,7.35
2023-01-09T00:36:12.142Z,7.31
2023-01-09T00:38:39.630Z,6.99
2023-01-09T00:41:10.386Z,6.88
2023-01-09T00:43:44.521Z,7.04
2023-01-09T00:46:11.956Z,7.11
2023-01-09T00:48:41.585Z,7.14
2023-01-09T00:51:08.725Z,7.15
2023-01-09T00:53:38.166Z,7.17
2023-01-09T00:56:10.408Z,7.20
2023-01-09T00:58:37.670Z,7.15
2023-01-09T01:01:05.720Z,7.18
2023-01-09T01:03:32.750Z,7.16
2023-01-09T01:06:17.931Z,7.22
2023-01-09T01:08:46.232Z,7.23
2023-01-09T01:11:13.302Z,7.24
2023-01-09T01:13:41.871Z,7.22
2023-01-09T01:16:12.259Z,7.27
2023-01-09T01:18:39.597Z,7.24
2023-01-09T01:21:12.534Z,7.25
2023-01-09T01:23:39.933Z,7.31
2023-01-09T01:26:11.414Z,7.34
2023-01-09T01:28:39.152Z,7.35
2023-01-09T01:31:06.496Z,7.39
2023-01-09T01:33:35.913Z,7.38
2023-01-09T01:36:06.257Z,7.44
2023-01-09T01:38:33.796Z,7.43
2023-01-09T01:41:02.332Z,7.33
2023-01-09T01:43:51.885Z,7.45
2023-01-09T01:46:19.326Z,7.48
2023-01-09T01:48:50.368Z,7.48
2023-01-09T01:51:18.865Z,7.46
2023-01-09T01:53:53.991Z,7.47
2023-01-09T01:56:35.320Z,7.52
2023-01-09T01:59:13.504Z,7.52
2023-01-09T02:01:45.508Z,7.50
2023-01-09T02:04:12.946Z,7.31
2023-01-09T02:06:40.324Z,7.35
2023-01-09T02:09:08.721Z,6.69
2023-01-09T02:11:35.564Z,7.01
2023-01-09T02:14:02.898Z,7.07
2023-01-09T02:16:48.878Z,7.14
2023-01-09T02:19:33.622Z,7.22
2023-01-09T02:22:53.874Z,7.27
2023-01-09T02:25:52.397Z,7.24
2023-01-09T02:28:57.005Z,7.25
2023-01-09T02:31:35.614Z,7.21
2023-01-09T02:34:21.090Z,7.31
2023-01-09T02:37:01.747Z,7.25
2023-01-09T02:39:44.296Z,7.14
2023-01-09T02:42:21.685Z,7.12
2023-01-09T02:44:48.553Z,7.14
2023-01-09T02:47:15.219Z,7.17
2023-01-09T02:49:54.158Z,7.12
2023-01-09T02:53:07.667Z,7.12
2023-01-09T02:55:53.167Z,7.13
2023-01-09T02:58:50.423Z,7.20
2023-01-09T03:01:27.448Z,7.17
2023-01-09T03:04:19.217Z,7.12
2023-01-09T03:06:48.270Z,7.10
2023-01-09T03:09:20.284Z,7.07
2023-01-09T03:12:00.205Z,7.03
2023-01-09T03:14:30.531Z,7.00
2023-01-09T03:17:04.220Z,7.12
2023-01-09T03:19:33.355Z,7.07
2023-01-09T03:22:00.307Z,7.04
2023-01-09T03:24:27.255Z,6.97
2023-01-09T03:26:56.758Z,6.97
2023-01-09T03:29:23.583Z,6.92
2023-01-09T03:31:51.579Z,7.04
2023-01-09T03:34:18.453Z,7.05
2023-01-09T03:36:45.334Z,7.03
2023-01-09T03:39:12.262Z,6.94
2023-01-09T03:41:39.054Z,6.92
2023-01-09T03:44:05.847Z,6.90
2023-01-09T03:46:32.655Z,6.90
2023-01-09T03:48:59.480Z,6.87
2023-01-09T03:51:26.343Z,6.86
2023-01-09T03:53:53.195Z,6.83
2023-01-09T03:56:20.339Z,6.93
2023-01-09T03:58:50.012Z,6.89
2023-01-09T04:01:16.941Z,6.89
2023-01-09T04:03:43.797Z,6.91
2023-01-09T04:06:10.608Z,6.89
2023-01-09T04:08:37.444Z,6.87
2023-01-09T04:11:04.300Z,6.81
2023-01-09T04:13:31.182Z,6.84
2023-01-09T04:15:58.063Z,6.89
2023-01-09T04:18:24.946Z,6.84
2023-01-09T04:20:52.135Z,6.78
2023-01-09T04:23:19.882Z,6.73
2023-01-09T04:25:47.670Z,6.73
2023-01-09T04:28:14.507Z,6.74
2023-01-09T04:30:41.333Z,6.83
2023-01-09T04:33:08.129Z,6.78
2023-01-09T04:35:34.971Z,6.76
2023-01-09T04:38:01.912Z,6.79
2023-01-09T04:40:28.710Z,6.81
2023-01-09T04:42:55.577Z,6.83
2023-01-09T04:45:22.466Z,6.80
2023-01-09T04:47:49.367Z,6.79
2023-01-09T04:50:16.382Z,6.81
2023-01-09T04:52:43.326Z,6.71
2023-01-09T04:55:10.580Z,6.79
2023-01-09T04:57:37.831Z,6.80
2023-01-09T05:00:09.783Z,6.84
2023-01-09T05:02:37.395Z,6.87
2023-01-09T05:05:06.441Z,6.91
2023-01-09T05:07:33.710Z,6.98
2023-01-09T05:10:01.311Z,6.99
2023-01-09T05:12:28.148Z,7.03
2023-01-09T05:14:54.988Z,7.05
2023-01-09T05:17:21.841Z,7.11
2023-01-09T05:19:48.629Z,7.20
2023-01-09T05:22:15.558Z,7.40
2023-01-09T05:24:42.495Z,7.54
2023-01-09T05:27:09.339Z,7.65
2023-01-09T05:29:36.163Z,7.82
2023-01-09T05:32:02.990Z,8.06
2023-01-09T05:34:29.971Z,8.20
2023-01-09T05:36:56.793Z,8.42
2023-01-09T05:39:23.626Z,8.54
2023-01-09T05:41:50.424Z,8.34
2023-01-09T05:44:17.323Z,8.85
2023-01-09T05:46:44.404Z,9.07
2023-01-09T05:49:11.794Z,8.99
2023-01-09T05:51:38.626Z,9.17
2023-01-09T05:54:07.385Z,9.36
2023-01-09T05:56:34.299Z,9.49
2023-01-09T05:59:01.294Z,9.58
2023-01-09T06:01:28.330Z,9.61
2023-01-09T06:03:55.278Z,9.71
2023-01-09T06:06:24.058Z,9.62
2023-01-09T06:08:51.013Z,9.61
2023-01-09T06:11:17.891Z,9.63
2023-01-09T06:13:44.928Z,9.66
2023-01-09T06:16:13.818Z,9.37
2023-01-09T06:18:40.775Z,9.45
2023-01-09T06:21:07.655Z,9.58
2023-01-09T06:23:34.485Z,9.72
2023-01-09T06:26:01.454Z,9.33
2023-01-09T06:28:28.276Z,9.55
2023-01-09T06:30:55.112Z,9.36
2023-01-09T06:33:22.003Z,9.50
2023-01-09T06:35:48.979Z,9.87
2023-01-09T06:38:15.833Z,9.92
2023-01-09T06:40:42.631Z,9.81
2023-01-09T06:43:09.487Z,9.36
2023-01-09T06:45:36.357Z,9.81
2023-01-09T06:48:03.211Z,9.66
2023-01-09T06:50:30.224Z,9.78
2023-01-09T06:52:57.108Z,9.84
2023-01-09T06:55:23.943Z,9.64
2023-01-09T06:57:50.738Z,9.82
2023-01-09T07:00:18.381Z,9.75
2023-01-09T07:02:45.343Z,9.36
2023-01-09T07:05:12.658Z,9.42
2023-01-09T07:07:41.140Z,9.29
2023-01-09T07:10:09.722Z,9.32
2023-01-09T07:12:36.675Z,8.91
2023-01-09T07:15:03.982Z,9.10
2023-01-09T07:17:30.831Z,9.20
2023-01-09T07:19:57.661Z,9.24
2023-01-09T07:22:24.531Z,9.19
2023-01-09T07:24:51.371Z,9.05
2023-01-09T07:27:18.195Z,9.21
2023-01-09T07:29:45.014Z,9.28
2023-01-09T07:32:11.853Z,8.93
2023-01-09T07:34:38.669Z,9.10
2023-01-09T07:37:05.490Z,9.07
2023-01-09T07:39:32.347Z,9.31
2023-01-09T07:41:59.227Z,9.11
2023-01-09T07:44:26.126Z,9.24
2023-01-09T07:46:52.979Z,9.14
2023-01-09T07:49:19.835Z,9.05
2023-01-09T07:51:48.299Z,9.00
2023-01-09T07:54:15.227Z,8.97
2023-01-09T07:56:42.198Z,8.87
2023-01-09T07:59:09.071Z,8.83
2023-01-09T08:01:36.044Z,9.02
2023-01-09T08:04:03.369Z,9.19
2023-01-09T08:06:31.471Z,9.10
2023-01-09T08:09:00.152Z,9.17
2023-01-09T08:11:27.276Z,8.99
2023-01-09T08:13:54.150Z,9.30
2023-01-09T08:16:20.954Z,9.24
2023-01-09T08:18:47.845Z,9.22
2023-01-09T08:21:14.794Z,9.43
2023-01-09T08:23:41.750Z,8.85
2023-01-09T08:26:08.722Z,9.32
2023-01-09T08:28:35.576Z,9.64
2023-01-09T08:31:02.445Z,9.31
2023-01-09T08:33:29.731Z,9.49
2023-01-09T08:35:56.651Z,9.55
2023-01-09T08:38:23.449Z,9.78
2023-01-09T08:40:50.346Z,9.77
2023-01-09T08:43:35.722Z,9.97
2023-01-09T08:46:36.594Z,9.67
2023-01-09T08:49:03.446Z,9.59
2023-01-09T08:51:30.369Z,9.99
2023-01-09T08:53:57.153Z,9.55
2023-01-09T08:56:24.006Z,9.82
2023-01-09T08:58:50.885Z,9.67
2023-01-09T09:01:17.820Z,9.74
2023-01-09T09:03:44.666Z,9.23
2023-01-09T09:06:11.511Z,9.46
2023-01-09T09:08:38.644Z,9.29
2023-01-09T09:11:05.700Z,9.43
2023-01-09T09:13:32.641Z,9.42
2023-01-09T09:15:59.543Z,9.33
2023-01-09T09:18:26.455Z,9.38
2023-01-09T09:20:53.238Z,9.11
2023-01-09T09:23:20.164Z,9.07
2023-01-09T09:25:47.056Z,9.01
2023-01-09T09:28:13.902Z,9.27
2023-01-09T09:30:40.994Z,9.11
2023-01-09T09:33:07.816Z,9.52
2023-01-09T09:35:35.087Z,9.36
2023-01-09T09:38:05.368Z,9.13
2023-01-09T09:41:30.858Z,9.38
2023-01-09T09:44:52.614Z,9.75
2023-01-09T09:47:37.980Z,9.92
2023-01-09T09:50:29.096Z,9.41
2023-01-09T09:53:26.258Z,9.01
2023-01-09T09:55:53.416Z,9.86
2023-01-09T09:58:37.767Z,9.92
2023-01-09T10:01:06.053Z,9.89
2023-01-09T10:03:45.577Z,9.60
2023-01-09T10:06:32.543Z,9.93
2023-01-09T10:09:24.857Z,9.95
2023-01-09T10:12:06.955Z,9.61
2023-01-09T10:14:34.000Z,9.91
2023-01-09T10:17:36.227Z,9.69
2023-01-09T10:20:26.096Z,9.95
2023-01-09T10:23:36.078Z,9.57
2023-01-09T10:26:27.960Z,9.38
2023-01-09T10:29:09.581Z,9.77
2023-01-09T10:31:47.378Z,9.29
2023-01-09T10:34:34.518Z,9.44
2023-01-09T10:37:13.351Z,9.90
2023-01-09T10:39:54.195Z,9.97
2023-01-09T10:42:45.015Z,9.67
2023-01-09T10:45:30.372Z,9.38
2023-01-09T10:48:14.905Z,9.61
2023-01-09T10:50:45.998Z,9.53
2023-01-09T10:53:35.827Z,9.78
2023-01-09T10:56:27.988Z,9.66
2023-01-09T10:58:56.539Z,9.26
2023-01-09T11:01:32.818Z,9.03
2023-01-09T11:04:01.738Z,9.78
2023-01-09T11:06:58.777Z,9.63
2023-01-09T11:09:25.668Z,9.67
2023-01-09T11:11:52.873Z,9.46
2023-01-09T11:14:30.978Z,9.72
2023-01-09T11:17:03.915Z,9.63
2023-01-09T11:19:33.470Z,9.65
2023-01-09T11:22:17.559Z,9.69
2023-01-09T11:24:44.842Z,9.47
2023-01-09T11:27:23.301Z,9.70
2023-01-09T11:30:29.117Z,9.60
2023-01-09T11:32:58.273Z,9.64
2023-01-09T11:35:34.188Z,10.05
2023-01-09T11:38:17.110Z,10.10
2023-01-09T11:40:51.781Z,10.31
2023-01-09T11:43:30.631Z,10.33
2023-01-09T11:46:01.936Z,10.37
2023-01-09T11:48:43.455Z,10.39
2023-01-09T11:51:24.206Z,10.56
2023-01-09T11:54:27.784Z,9.80
2023-01-09T11:56:55.987Z,10.04
2023-01-09T11:59:29.038Z,10.30
2023-01-09T12:02:34.913Z,10.35
2023-01-09T12:05:44.718Z,10.39
2023-01-09T12:08:30.155Z,10.54
2023-01-09T12:11:14.952Z,10.70
2023-01-09T12:14:16.127Z,10.80
2023-01-09T12:17:04.393Z,10.83
2023-01-09T12:20:17.729Z,10.66
2023-01-09T12:22:54.034Z,10.21
2023-01-09T12:25:53.557Z,10.49
2023-01-09T12:28:48.095Z,10.84
2023-01-09T12:31:36.696Z,11.10
2023-01-09T12:34:25.309Z,11.39
2023-01-09T12:37:17.985Z,11.43
2023-01-09T12:40:24.022Z,11.12
2023-01-09T12:43:29.486Z,11.49
2023-01-09T12:46:20.016Z,11.10
2023-01-09T12:49:26.723Z,10.91
2023-01-09T12:52:23.349Z,10.78
2023-01-09T12:55:21.035Z,10.91
2023-01-09T12:57:56.149Z,10.29
2023-01-09T13:00:30.406Z,10.45
2023-01-09T13:03:29.080Z,10.70
2023-01-09T13:05:57.572Z,10.70
2023-01-09T13:08:40.917Z,10.72
2023-01-09T13:11:28.987Z,10.78
2023-01-09T13:13:59.983Z,11.00
2023-01-09T13:16:41.547Z,10.98
2023-01-09T13:19:39.465Z,10.30
2023-01-09T13:22:07.695Z,10.81
2023-01-09T13:24:39.276Z,10.82
2023-01-09T13:27:13.404Z,10.45
2023-01-09T13:29:50.600Z,10.61
2023-01-09T13:32:57.253Z,10.66
2023-01-09T13:35:24.216Z,10.45
2023-01-09T13:37:52.903Z,10.93
2023-01-09T13:40:19.649Z,10.01
2023-01-09T13:43:03.575Z,10.61
2023-01-09T13:45:37.074Z,10.37
2023-01-09T13:48:11.025Z,10.64
2023-01-09T13:50:43.306Z,10.49
2023-01-09T13:53:19.342Z,10.43
2023-01-09T13:55:58.899Z,10.15
2023-01-09T13:58:33.779Z,10.34
2023-01-09T14:01:05.492Z,10.28
2023-01-09T14:03:36.455Z,10.52
2023-01-09T14:06:11.986Z,10.18
2023-01-09T14:08:41.872Z,10.38
2023-01-09T14:11:10.215Z,10.22
2023-01-09T14:13:44.563Z,10.33
2023-01-09T14:16:20.703Z,10.83
2023-01-09T14:18:59.321Z,10.94
2023-01-09T14:21:26.191Z,10.77
2023-01-09T14:24:06.754Z,10.80
2023-01-09T14:26:45.041Z,10.84
2023-01-09T14:29:35.774Z,10.75
2023-01-09T14:32:21.464Z,10.84
2023-01-09T14:34:54.768Z,10.56
2023-01-09T14:37:21.758Z,10.44
2023-01-09T14:39:50.563Z,10.52
2023-01-09T14:42:24.851Z,10.51
2023-01-09T14:45:06.315Z,10.60
2023-01-09T14:47:48.655Z,10.37
2023-01-09T14:50:47.775Z,10.38
2023-01-09T14:53:21.117Z,10.22
2023-01-09T14:56:01.728Z,10.23
2023-01-09T14:58:36.378Z,9.98
2023-01-09T15:01:23.706Z,10.11
2023-01-09T15:04:06.850Z,10.11
2023-01-09T15:06:37.899Z,9.93
2023-01-09T15:09:07.829Z,9.94
2023-01-09T15:11:39.176Z,9.96
2023-01-09T15:14:07.258Z,9.83
2023-01-09T15:16:34.416Z,9.85
2023-01-09T15:19:07.838Z,9.78
2023-01-09T15:21:34.637Z,9.79
2023-01-09T15:24:34.250Z,9.60
2023-01-09T15:27:15.796Z,9.69
2023-01-09T15:29:42.625Z,9.64
2023-01-09T15:32:29.903Z,9.11
2023-01-09T15:34:57.927Z,9.21
2023-01-09T15:37:38.716Z,9.47
2023-01-09T15:40:21.714Z,9.27
2023-01-09T15:42:57.343Z,9.00
2023-01-09T15:45:38.433Z,9.25
2023-01-09T15:48:34.794Z,9.28
2023-01-09T15:51:18.902Z,9.22
2023-01-09T15:53:53.703Z,9.33
2023-01-09T15:56:30.455Z,9.24
2023-01-09T15:58:59.254Z,9.21
2023-01-09T16:01:40.215Z,9.03
2023-01-09T16:04:16.544Z,9.17
2023-01-09T16:06:49.410Z,9.27
2023-01-09T16:09:30.547Z,9.09
2023-01-09T16:12:01.054Z,8.94
2023-01-09T16:14:39.580Z,8.68
2023-01-09T16:17:13.880Z,8.51
2023-01-09T16:19:50.253Z,8.66
2023-01-09T16:22:33.218Z,8.77
2023-01-09T16:25:28.347Z,8.79
2023-01-09T16:28:23.010Z,8.62
2023-01-09T16:31:01.917Z,8.62
2023-01-09T16:33:31.132Z,8.66
2023-01-09T16:35:59.027Z,8.67
2023-01-09T16:38:26.644Z,8.62
2023-01-09T16:41:27.140Z,8.52
2023-01-09T16:43:53.987Z,8.73
2023-01-09T16:46:21.694Z,8.72
2023-01-09T16:48:48.948Z,8.76
2023-01-09T16:51:22.691Z,8.67
2023-01-09T16:53:50.148Z,8.61
2023-01-09T16:56:24.810Z,8.49
2023-01-09T16:58:54.552Z,8.57
2023-01-09T17:01:22.958Z,8.65
2023-01-09T17:03:50.364Z,8.61
2023-01-09T17:06:29.196Z,8.55
2023-01-09T17:08:56.381Z,8.70
2023-01-09T17:11:32.093Z,8.49
2023-01-09T17:14:03.753Z,8.20
2023-01-09T17:16:30.830Z,8.29
2023-01-09T17:18:57.719Z,8.34
2023-01-09T17:21:28.975Z,8.64
2023-01-09T17:24:14.828Z,8.63
2023-01-09T17:27:04.239Z,8.72
2023-01-09T17:29:31.387Z,8.49
2023-01-09T17:31:58.588Z,8.75
2023-01-09T17:34:25.474Z,8.71
2023-01-09T17:36:55.458Z,8.73
2023-01-09T17:39:23.583Z,8.71
2023-01-09T17:41:50.487Z,8.61
2023-01-09T17:44:17.345Z,8.57
2023-01-09T17:46:45.021Z,8.48
2023-01-09T17:49:20.253Z,8.58
2023-01-09T17:51:47.469Z,8.18
2023-01-09T17:54:14.637Z,8.36
2023-01-09T17:56:47.438Z,8.41
2023-01-09T17:59:15.777Z,8.46
2023-01-09T18:01:44.093Z,8.26
2023-01-09T18:04:11.261Z,8.34
2023-01-09T18:06:38.051Z,8.35
2023-01-09T18:09:05.968Z,8.37
2023-01-09T18:11:33.086Z,8.54
2023-01-09T18:13:59.943Z,8.56
2023-01-09T18:16:28.666Z,8.30
2023-01-09T18:18:58.355Z,8.53
2023-01-09T18:21:27.063Z,8.22
2023-01-09T18:23:54.537Z,8.38
2023-01-09T18:26:22.187Z,8.16
2023-01-09T18:28:52.703Z,8.30
2023-01-09T18:31:23.444Z,8.40
2023-01-09T18:33:56.545Z,8.44
2023-01-09T18:36:29.652Z,8.25
2023-01-09T18:38:59.737Z,8.30
2023-01-09T18:41:27.647Z,8.13
2023-01-09T18:43:57.777Z,8.22
2023-01-09T18:46:26.166Z,8.24
2023-01-09T18:49:00.846Z,8.11
2023-01-09T18:51:29.657Z,8.24
2023-01-09T18:53:56.910Z,7.83
2023-01-09T18:56:24.889Z,8.15
2023-01-09T18:58:58.746Z,7.98
2023-01-09T19:01:30.183Z,8.29
2023-01-09T19:03:59.456Z,8.29
2023-01-09T19:06:28.927Z,8.27
2023-01-09T19:08:58.244Z,8.30
2023-01-09T19:11:25.371Z,8.04
2023-01-09T19:13:52.260Z,8.09
2023-01-09T19:16:19.489Z,8.10
2023-01-09T19:18:46.777Z,8.02
2023-01-09T19:21:19.101Z,8.10
2023-01-09T19:23:48.049Z,7.65
2023-01-09T19:26:23.828Z,7.72
2023-01-09T19:28:55.056Z,7.60
2023-01-09T19:31:24.522Z,7.76
2023-01-09T19:33:53.927Z,7.73
2023-01-09T19:36:22.207Z,7.72
2023-01-09T19:38:49.219Z,7.68
2023-01-09T19:41:19.482Z,7.82
2023-01-09T19:43:47.693Z,7.76
2023-01-09T19:46:22.010Z,7.62
2023-01-09T19:48:50.196Z,7.40
2023-01-09T19:51:19.781Z,7.61
2023-01-09T19:53:58.207Z,7.47
2023-01-09T19:56:31.318Z,7.71
2023-01-09T19:59:02.181Z,7.37
2023-01-09T20:01:38.734Z,7.56
2023-01-09T20:04:13.387Z,7.53
2023-01-09T20:06:47.170Z,7.37
2023-01-09T20:09:17.696Z,7.43
2023-01-09T20:11:44.945Z,7.37
2023-01-09T20:14:16.307Z,7.67
2023-01-09T20:16:43.779Z,7.60
2023-01-09T20:19:13.011Z,7.69
2023-01-09T20:21:40.096Z,7.39
2023-01-09T20:24:08.486Z,7.69
2023-01-09T20:26:37.669Z,7.43
2023-01-09T20:29:04.739Z,7.44
2023-01-09T20:31:32.958Z,7.37
2023-01-09T20:34:00.184Z,7.44
2023-01-09T20:36:30.039Z,7.32
2023-01-09T20:38:59.951Z,7.33
2023-01-09T20:41:29.382Z,7.11
2023-01-09T20:43:59.625Z,7.17
2023-01-09T20:46:30.560Z,7.01
2023-01-09T20:49:06.455Z,7.10
2023-01-09T20:51:41.840Z,6.91
2023-01-09T20:54:09.096Z,7.00
2023-01-09T20:56:39.115Z,6.99
2023-01-09T20:59:14.476Z,6.95
2023-01-09T21:01:41.515Z,6.89
2023-01-09T21:04:08.946Z,7.07
2023-01-09T21:06:36.241Z,6.91
2023-01-09T21:09:05.242Z,6.87
2023-01-09T21:11:32.757Z,7.01
2023-01-09T21:13:59.990Z,6.67
2023-01-09T21:16:27.141Z,6.92
2023-01-09T21:18:55.027Z,6.90
2023-01-09T21:21:27.243Z,6.92
2023-01-09T21:23:58.044Z,7.05
2023-01-09T21:26:28.900Z,6.87
2023-01-09T21:29:00.415Z,6.78
2023-01-09T21:31:34.456Z,7.04
2023-01-09T21:34:07.585Z,6.87
2023-01-09T21:36:35.879Z,6.87
2023-01-09T21:39:07.649Z,6.87
2023-01-09T21:41:53.983Z,6.77
2023-01-09T21:44:39.372Z,6.67
2023-01-09T21:47:06.244Z,6.96
2023-01-09T21:49:35.112Z,7.20
2023-01-09T21:52:05.797Z,7.05
2023-01-09T21:54:33.417Z,7.17
2023-01-09T21:57:01.097Z,7.29
2023-01-09T21:59:29.143Z,7.13
2023-01-09T22:01:56.126Z,7.21
2023-01-09T22:04:27.982Z,7.25
2023-01-09T22:06:55.948Z,7.29
2023-01-09T22:09:23.150Z,7.09
2023-01-09T22:11:49.963Z,6.91
2023-01-09T22:14:18.907Z,7.33
2023-01-09T22:16:46.422Z,7.05
2023-01-09T22:19:14.791Z,7.09
2023-01-09T22:21:41.671Z,7.07
2023-01-09T22:24:11.766Z,7.10
2023-01-09T22:26:38.615Z,7.30
2023-01-09T22:29:05.414Z,7.04
2023-01-09T22:31:34.983Z,6.87
2023-01-09T22:34:02.576Z,6.96
2023-01-09T22:36:31.012Z,7.07
2023-01-09T22:39:00.305Z,7.03
2023-01-09T22:41:29.600Z,6.83
2023-01-09T22:43:56.518Z,6.98
2023-01-09T22:46:23.658Z,7.10
2023-01-09T22:48:50.554Z,7.10
2023-01-09T22:51:20.890Z,7.00
2023-01-09T22:53:48.156Z,7.17
2023-01-09T22:56:20.924Z,7.21
2023-01-09T22:58:53.501Z,7.05
2023-01-09T23:01:21.672Z,7.23
2023-01-09T23:03:48.983Z,7.16
2023-01-09T23:06:21.846Z,7.09
2023-01-09T23:08:51.080Z,7.20
2023-01-09T23:11:47.490Z,7.21
2023-01-09T23:14:14.461Z,7.31
2023-01-09T23:16:41.794Z,7.21
2023-01-09T23:19:09.823Z,7.40
2023-01-09T23:21:37.231Z,7.44
2023-01-09T23:24:06.790Z,7.12
2023-01-09T23:26:34.741Z,7.36
2023-01-09T23:29:02.009Z,7.33
2023-01-09T23:31:28.857Z,7.53
2023-01-09T23:33:55.722Z,7.54
2023-01-09T23:36:22.554Z,7.28
2023-01-09T23:38:49.982Z,7.11
2023-01-09T23:41:16.817Z,6.99
2023-01-09T23:43:44.430Z,7.22
2023-01-09T23:46:14.361Z,7.29
2023-01-09T23:48:41.365Z,7.47
2023-01-09T23:51:08.263Z,7.41
2023-01-09T23:53:35.112Z,7.37
2023-01-09T23:56:02.969Z,7.17
2023-01-09T23:58:29.844Z,7.33
